createdAt,value
2024-05-09T00:01:15.890Z,97562.88
2024-05-09T00:03:45.050Z,97563.59
2024-05-09T00:06:14.477Z,97548.34
2024-05-09T00:08:41.984Z,97561.78
2024-05-09T00:11:22.978Z,97558.81
2024-05-09T00:13:50.513Z,97562.25
2024-05-09T00:16:39.762Z,97571.91
2024-05-09T00:19:07.225Z,97568.09
2024-05-09T00:21:34.728Z,97562.13
2024-05-09T00:24:02.148Z,97565.81
2024-05-09T00:26:32.355Z,97553.34
2024-05-09T00:29:04.113Z,97554.06
2024-05-09T00:31:32.919Z,97556.66
2024-05-09T00:34:01.010Z,97551.56
2024-05-09T00:36:32.889Z,97554.53
2024-05-09T00:39:14.923Z,97555.25
2024-05-09T00:41:42.265Z,97549.53
2024-05-09T00:44:12.626Z,97553.81
2024-05-09T00:46:53.924Z,97541.94
2024-05-09T00:49:33.547Z,97538.00
2024-05-09T00:52:03.218Z,97538.38
2024-05-09T00:54:31.937Z,97520.94
2024-05-09T00:56:59.495Z,97523.88
2024-05-09T00:59:34.964Z,97521.97
2024-05-09T01:02:12.664Z,97525.75
2024-05-09T01:04:40.415Z,97516.34
2024-05-09T01:07:11.520Z,97519.75
2024-05-09T01:09:41.060Z,97526.56
2024-05-09T01:12:09.239Z,97520.97
2024-05-09T01:14:39.137Z,97512.19
2024-05-09T01:17:13.171Z,97528.00
2024-05-09T01:19:44.180Z,97526.97
2024-05-09T01:22:22.662Z,97529.63
2024-05-09T01:24:53.322Z,97530.41
2024-05-09T01:27:31.162Z,97537.28
2024-05-09T01:30:00.331Z,97532.66
2024-05-09T01:32:28.548Z,97536.34
2024-05-09T01:34:57.844Z,97538.91
2024-05-09T01:37:30.232Z,97535.78
2024-05-09T01:40:18.622Z,97544.69
2024-05-09T01:42:54.689Z,97548.94
2024-05-09T01:45:23.679Z,97545.59
2024-05-09T01:48:20.428Z,97546.19
2024-05-09T01:50:49.686Z,97548.34
2024-05-09T01:53:19.079Z,97555.00
2024-05-09T01:55:52.107Z,97546.56
2024-05-09T01:58:30.796Z,97545.28
2024-05-09T02:01:21.182Z,97546.84
2024-05-09T02:03:49.533Z,97557.53
2024-05-09T02:06:44.369Z,97557.47
2024-05-09T02:09:12.083Z,97546.69
2024-05-09T02:11:47.999Z,97554.97
2024-05-09T02:14:21.950Z,97541.00
2024-05-09T02:16:50.678Z,97554.66
2024-05-09T02:19:22.313Z,97549.75
2024-05-09T02:22:02.425Z,97554.28
2024-05-09T02:25:05.917Z,97554.25
2024-05-09T02:27:34.253Z,97554.94
2024-05-09T02:30:02.169Z,97563.78
2024-05-09T02:33:01.073Z,97567.78
2024-05-09T02:35:29.138Z,97556.16
2024-05-09T02:38:05.337Z,97556.28
2024-05-09T02:40:41.527Z,97563.59
2024-05-09T02:43:15.442Z,97557.56
2024-05-09T02:45:53.100Z,97560.34
2024-05-09T02:48:29.957Z,97559.56
2024-05-09T02:51:02.448Z,97554.31
2024-05-09T02:53:39.287Z,97557.81
2024-05-09T02:56:07.745Z,97547.94
2024-05-09T02:58:39.572Z,97546.56
2024-05-09T03:01:08.584Z,97545.72
2024-05-09T03:03:36.819Z,97540.00
2024-05-09T03:06:13.345Z,97545.22
2024-05-09T03:08:46.876Z,97544.09
2024-05-09T03:11:26.300Z,97544.88
2024-05-09T03:13:55.466Z,97548.47
2024-05-09T03:16:24.320Z,97552.88
2024-05-09T03:18:53.716Z,97560.19
2024-05-09T03:21:26.862Z,97560.66
2024-05-09T03:24:11.771Z,97561.19
2024-05-09T03:26:41.891Z,97557.25
2024-05-09T03:29:09.660Z,97564.44
2024-05-09T03:31:50.734Z,97552.56
2024-05-09T03:34:19.866Z,97554.44
2024-05-09T03:37:04.398Z,97555.16
2024-05-09T03:39:54.510Z,97552.00
2024-05-09T03:42:25.926Z,97559.81
2024-05-09T03:45:00.979Z,97563.53
2024-05-09T03:47:38.061Z,97551.31
2024-05-09T03:50:36.295Z,97562.00
2024-05-09T03:53:05.834Z,97560.66
2024-05-09T03:55:44.599Z,97573.63
2024-05-09T03:58:14.966Z,97565.81
2024-05-09T04:00:46.734Z,97570.97
2024-05-09T04:03:15.999Z,97576.84
2024-05-09T04:05:45.356Z,97579.66
2024-05-09T04:08:16.041Z,97574.56
2024-05-09T04:10:47.931Z,97577.69
2024-05-09T04:13:16.791Z,97574.13
2024-05-09T04:15:48.546Z,97576.59
2024-05-09T04:18:19.978Z,97585.13
2024-05-09T04:20:49.290Z,97576.38
2024-05-09T04:23:18.223Z,97579.97
2024-05-09T04:25:47.071Z,97577.69
2024-05-09T04:28:15.358Z,97578.53
2024-05-09T04:30:44.146Z,97582.88
2024-05-09T04:33:13.781Z,97583.84
2024-05-09T04:35:44.265Z,97585.19
2024-05-09T04:38:14.937Z,97584.50
2024-05-09T04:40:43.493Z,97586.16
2024-05-09T04:43:24.522Z,97586.44
2024-05-09T04:45:56.368Z,97578.44
2024-05-09T04:48:35.990Z,97587.69
2024-05-09T04:51:08.097Z,97582.38
2024-05-09T04:53:36.205Z,97579.25
2024-05-09T04:56:05.599Z,97586.19
2024-05-09T04:58:34.572Z,97589.00
2024-05-09T05:01:04.141Z,97581.53
2024-05-09T05:03:48.753Z,97587.41
2024-05-09T05:06:17.937Z,97590.94
2024-05-09T05:08:52.107Z,97590.13
2024-05-09T05:11:19.924Z,97588.44
2024-05-09T05:13:48.885Z,97597.75
2024-05-09T05:16:19.552Z,97580.19
2024-05-09T05:19:07.554Z,97581.44
2024-05-09T05:21:39.190Z,97579.97
2024-05-09T05:24:08.131Z,97591.47
2024-05-09T05:26:36.013Z,97587.38
2024-05-09T05:29:04.972Z,97596.78
2024-05-09T05:31:33.725Z,97592.03
2024-05-09T05:34:02.776Z,97595.19
2024-05-09T05:36:31.566Z,97588.94
2024-05-09T05:39:11.254Z,97596.69
2024-05-09T05:41:40.045Z,97593.25
2024-05-09T05:44:07.965Z,97593.81
2024-05-09T05:46:37.145Z,97585.72
2024-05-09T05:50:23.697Z,97581.47
2024-05-09T05:53:00.600Z,97594.31
2024-05-09T05:55:34.030Z,97589.44
2024-05-09T05:58:03.676Z,97599.28
2024-05-09T06:03:04.632Z,97607.28
2024-05-09T06:05:32.985Z,97599.88
2024-05-09T06:08:02.088Z,97598.53
2024-05-09T06:10:40.820Z,97601.66
2024-05-09T06:13:11.391Z,97590.88
2024-05-09T06:15:52.799Z,97595.88
2024-05-09T06:18:21.909Z,97586.25
2024-05-09T06:20:50.821Z,97584.44
2024-05-09T06:23:20.171Z,97589.78
2024-05-09T06:25:53.834Z,97600.59
2024-05-09T06:28:23.075Z,97583.88
2024-05-09T06:30:51.066Z,97591.50
2024-05-09T06:33:20.229Z,97599.56
2024-05-09T06:35:59.075Z,97598.88
2024-05-09T06:38:29.091Z,97605.16
2024-05-09T06:41:02.641Z,97595.75
2024-05-09T06:43:35.909Z,97613.72
2024-05-09T06:46:08.027Z,97610.41
2024-05-09T06:48:48.492Z,97609.69
2024-05-09T06:51:17.536Z,97602.78
2024-05-09T06:53:49.700Z,97614.94
2024-05-09T06:56:26.709Z,97607.78
2024-05-09T06:59:04.677Z,97609.56
2024-05-09T07:01:38.160Z,97610.31
2024-05-09T07:04:19.529Z,97614.09
2024-05-09T07:07:16.978Z,97604.53
2024-05-09T07:09:45.890Z,97608.66
2024-05-09T07:12:14.093Z,97598.91
2024-05-09T07:14:44.014Z,97610.50
2024-05-09T07:17:13.231Z,97595.88
2024-05-09T07:19:44.222Z,97602.31
2024-05-09T07:22:12.075Z,97602.03
2024-05-09T07:24:46.383Z,97605.19
2024-05-09T07:27:21.097Z,97596.72
2024-05-09T07:29:54.775Z,97594.97
2024-05-09T07:32:27.999Z,97590.41
2024-05-09T07:35:01.165Z,97589.81
2024-05-09T07:37:32.044Z,97591.78
2024-05-09T07:40:01.905Z,97594.06
2024-05-09T07:42:37.236Z,97588.81
2024-05-09T07:45:24.233Z,97592.69
2024-05-09T07:49:44.208Z,97590.78
2024-05-09T08:00:31.055Z,97591.09
2024-05-09T08:03:01.290Z,97586.91
2024-05-09T08:05:32.578Z,97573.59
2024-05-09T08:08:01.280Z,97580.75
2024-05-09T08:11:19.620Z,97571.72
2024-05-09T08:13:47.849Z,97567.81
2024-05-09T08:16:17.965Z,97561.41
2024-05-09T08:18:51.370Z,97570.03
2024-05-09T08:21:34.546Z,97562.75
2024-05-09T08:24:34.523Z,97566.06
2024-05-09T08:27:09.672Z,97565.22
2024-05-09T08:29:41.647Z,97563.66
2024-05-09T08:32:12.731Z,97562.72
2024-05-09T08:34:56.633Z,97568.03
2024-05-09T08:37:29.440Z,97559.88
2024-05-09T08:40:04.102Z,97562.06
2024-05-09T08:42:35.574Z,97554.22
2024-05-09T08:45:02.796Z,97552.81
2024-05-09T08:47:32.396Z,97555.75
2024-05-09T08:50:05.324Z,97557.84
2024-05-09T08:52:37.293Z,97550.50
2024-05-09T08:55:06.565Z,97550.22
2024-05-09T08:57:38.171Z,97551.75
2024-05-09T09:02:53.150Z,97560.19
2024-05-09T09:05:32.014Z,97556.41
2024-05-09T09:07:59.371Z,97556.03
2024-05-09T09:10:31.985Z,97560.84
2024-05-09T09:13:04.026Z,97553.66
2024-05-09T09:15:33.836Z,97556.59
2024-05-09T09:18:13.891Z,97554.34
2024-05-09T09:20:43.887Z,97559.88
2024-05-09T09:23:11.349Z,97558.56
2024-05-09T09:25:41.861Z,97548.22
2024-05-09T09:28:09.918Z,97555.44
2024-05-09T09:30:42.045Z,97553.81
2024-05-09T09:33:10.806Z,97550.09
2024-05-09T09:35:41.218Z,97555.72
2024-05-09T09:38:17.792Z,97560.88
2024-05-09T09:40:49.520Z,97556.03
2024-05-09T09:43:22.620Z,97551.16
2024-05-09T09:45:53.401Z,97555.19
2024-05-09T09:48:23.786Z,97566.22
2024-05-09T09:50:56.918Z,97565.31
2024-05-09T09:53:36.667Z,97559.91
2024-05-09T09:56:08.161Z,97560.44
2024-05-09T09:58:39.374Z,97557.81
2024-05-09T10:01:07.785Z,97562.09
2024-05-09T10:03:36.464Z,97557.41
2024-05-09T10:06:06.806Z,97556.28
2024-05-09T10:08:37.042Z,97551.88
2024-05-09T10:11:06.626Z,97553.81
2024-05-09T10:13:36.111Z,97543.56
2024-05-09T10:16:08.875Z,97542.06
2024-05-09T10:18:41.226Z,97540.25
2024-05-09T10:21:20.577Z,97538.47
2024-05-09T10:24:05.256Z,97532.78
2024-05-09T10:26:35.172Z,97533.09
2024-05-09T10:29:16.947Z,97544.66
2024-05-09T10:31:49.244Z,97535.44
2024-05-09T10:34:24.368Z,97542.59
2024-05-09T10:36:54.093Z,97534.03
2024-05-09T10:39:23.137Z,97535.94
2024-05-09T10:41:51.399Z,97526.38
2024-05-09T10:44:21.894Z,97529.75
2024-05-09T10:46:50.971Z,97530.13
2024-05-09T10:49:20.120Z,97521.22
2024-05-09T10:51:48.856Z,97531.38
2024-05-09T10:54:17.839Z,97526.72
2024-05-09T10:56:46.186Z,97533.38
2024-05-09T10:59:17.063Z,97532.91
2024-05-09T11:01:46.402Z,97527.25
2024-05-09T11:04:14.893Z,97526.72
2024-05-09T11:06:43.420Z,97515.53
2024-05-09T11:09:12.713Z,97517.66
2024-05-09T11:11:42.036Z,97518.84
2024-05-09T11:14:14.191Z,97513.03
2024-05-09T11:16:42.019Z,97510.38
2024-05-09T11:19:14.909Z,97502.44
2024-05-09T11:21:43.083Z,97496.78
2024-05-09T11:24:12.457Z,97504.69
2024-05-09T11:26:44.419Z,97488.69
2024-05-09T11:29:15.043Z,97496.03
2024-05-09T11:31:49.382Z,97495.56
2024-05-09T11:34:17.590Z,97503.75
2024-05-09T11:36:46.205Z,97491.97
2024-05-09T11:39:14.035Z,97496.66
2024-05-09T11:41:43.334Z,97495.06
2024-05-09T11:44:12.184Z,97490.16
2024-05-09T11:46:40.331Z,97494.91
2024-05-09T11:49:10.269Z,97495.63
2024-05-09T11:51:38.517Z,97493.75
2024-05-09T11:54:07.583Z,97484.94
2024-05-09T11:56:36.959Z,97494.09
2024-05-09T11:59:05.031Z,97488.88
2024-05-09T12:01:33.881Z,97481.38
2024-05-09T12:04:03.675Z,97474.75
2024-05-09T12:06:33.731Z,97469.50
2024-05-09T12:09:03.082Z,97468.69
2024-05-09T12:11:32.287Z,97472.47
2024-05-09T12:14:05.023Z,97458.72
2024-05-09T12:16:33.770Z,97462.41
2024-05-09T12:19:07.544Z,97450.72
2024-05-09T12:21:48.919Z,97452.38
2024-05-09T12:24:18.805Z,97456.03
2024-05-09T12:26:48.294Z,97457.75
2024-05-09T12:29:18.968Z,97456.94
2024-05-09T12:31:47.174Z,97456.28
2024-05-09T12:34:16.232Z,97444.22
2024-05-09T12:36:44.366Z,97436.59
2024-05-09T12:39:13.190Z,97442.16
2024-05-09T12:41:42.066Z,97437.94
2024-05-09T12:44:10.043Z,97432.25
2024-05-09T12:46:39.348Z,97437.03
2024-05-09T12:49:07.691Z,97436.09
2024-05-09T12:51:35.955Z,97433.75
2024-05-09T12:54:04.497Z,97432.28
2024-05-09T12:56:35.437Z,97437.75
2024-05-09T12:59:05.157Z,97434.72
2024-05-09T13:01:33.368Z,97441.81
2024-05-09T13:04:01.425Z,97439.97
2024-05-09T13:06:32.006Z,97429.81
2024-05-09T13:09:02.043Z,97419.41
2024-05-09T13:11:33.083Z,97419.25
2024-05-09T13:14:05.163Z,97424.56
2024-05-09T13:16:33.249Z,97420.78
2024-05-09T13:19:01.039Z,97413.59
2024-05-09T13:21:28.737Z,97423.94
2024-05-09T13:23:56.802Z,97416.34
2024-05-09T13:26:28.526Z,97413.38
2024-05-09T13:28:56.360Z,97405.69
2024-05-09T13:31:24.006Z,97409.97
2024-05-09T13:33:54.559Z,97407.78
2024-05-09T13:36:22.652Z,97407.09
2024-05-09T13:38:50.986Z,97400.75
2024-05-09T13:41:18.235Z,97391.78
2024-05-09T13:43:45.961Z,97398.69
2024-05-09T13:46:13.584Z,97393.00
2024-05-09T13:48:41.249Z,97393.53
2024-05-09T13:51:08.848Z,97387.22
2024-05-09T13:53:36.071Z,97390.34
2024-05-09T13:56:04.456Z,97385.88
2024-05-09T13:58:32.726Z,97385.25
2024-05-09T14:01:00.541Z,97375.41
2024-05-09T14:03:28.236Z,97372.44
2024-05-09T14:05:57.129Z,97386.03
2024-05-09T14:08:24.804Z,97380.94
2024-05-09T14:10:52.321Z,97385.28
2024-05-09T14:13:20.111Z,97388.59
2024-05-09T14:15:49.932Z,97374.31
2024-05-09T14:18:18.958Z,97386.47
2024-05-09T14:20:48.310Z,97380.72
2024-05-09T14:23:18.402Z,97375.31
2024-05-09T14:25:51.957Z,97374.91
2024-05-09T14:28:22.419Z,97364.84
2024-05-09T14:30:51.432Z,97365.97
2024-05-09T14:33:20.533Z,97356.22
2024-05-09T14:35:50.039Z,97367.38
2024-05-09T14:38:18.615Z,97359.19
2024-05-09T14:40:46.365Z,97362.56
2024-05-09T14:43:15.480Z,97369.47
2024-05-09T14:45:45.969Z,97354.06
2024-05-09T14:48:15.982Z,97350.50
2024-05-09T14:50:44.552Z,97350.03
2024-05-09T14:53:14.002Z,97359.13
2024-05-09T14:55:43.540Z,97353.66
2024-05-09T14:58:13.718Z,97348.59
2024-05-09T15:00:46.829Z,97355.31
2024-05-09T15:03:22.568Z,97335.63
2024-05-09T15:05:51.494Z,97335.72
2024-05-09T15:08:20.535Z,97337.00
2024-05-09T15:10:49.875Z,97348.53
2024-05-09T15:13:21.884Z,97352.34
2024-05-09T15:15:52.103Z,97339.97
2024-05-09T15:18:21.271Z,97336.91
2024-05-09T15:20:51.904Z,97340.06
2024-05-09T15:23:20.724Z,97337.13
2024-05-09T15:25:49.486Z,97335.63
2024-05-09T15:28:18.574Z,97344.56
2024-05-09T15:30:48.521Z,97347.72
2024-05-09T15:33:17.627Z,97345.09
2024-05-09T15:35:47.268Z,97343.13
2024-05-09T15:38:17.907Z,97347.88
2024-05-09T15:40:47.734Z,97343.97
2024-05-09T15:43:16.237Z,97336.53
2024-05-09T15:45:47.518Z,97338.94
2024-05-09T15:48:16.785Z,97342.81
2024-05-09T15:50:44.827Z,97338.63
2024-05-09T15:53:13.504Z,97337.47
2024-05-09T15:55:45.700Z,97339.91
2024-05-09T15:58:24.651Z,97337.56
2024-05-09T16:00:53.796Z,97343.44
2024-05-09T16:03:23.417Z,97341.81
2024-05-09T16:05:52.573Z,97329.13
2024-05-09T16:08:22.284Z,97335.56
2024-05-09T16:10:51.361Z,97327.25
2024-05-09T16:13:21.072Z,97328.84
2024-05-09T16:15:51.428Z,97325.50
2024-05-09T16:18:21.735Z,97328.06
2024-05-09T16:20:51.711Z,97324.63
2024-05-09T16:23:19.638Z,97324.31
2024-05-09T16:25:48.712Z,97323.06
2024-05-09T16:28:19.077Z,97326.06
2024-05-09T16:30:48.384Z,97316.47
2024-05-09T16:33:16.807Z,97316.50
2024-05-09T16:35:45.308Z,97324.94
2024-05-09T16:38:14.006Z,97323.69
2024-05-09T16:40:42.646Z,97318.91
2024-05-09T16:43:13.546Z,97317.94
2024-05-09T16:45:44.842Z,97315.13
2024-05-09T16:48:14.938Z,97316.81
2024-05-09T16:50:43.810Z,97311.75
2024-05-09T16:53:13.413Z,97318.75
2024-05-09T16:55:42.280Z,97315.03
2024-05-09T16:58:11.981Z,97313.56
2024-05-09T17:00:43.170Z,97317.06
2024-05-09T17:03:17.442Z,97316.59
2024-05-09T17:05:47.736Z,97314.97
2024-05-09T17:08:18.192Z,97321.69
2024-05-09T17:10:47.694Z,97308.34
2024-05-09T17:13:17.306Z,97313.53
2024-05-09T17:15:45.981Z,97311.84
2024-05-09T17:18:14.778Z,97306.59
2024-05-09T17:20:42.960Z,97311.78
2024-05-09T17:23:10.295Z,97311.06
2024-05-09T17:25:37.620Z,97308.78
2024-05-09T17:28:06.496Z,97313.09
2024-05-09T17:30:38.158Z,97314.44
2024-05-09T17:33:09.579Z,97317.31
2024-05-09T17:35:38.413Z,97314.09
2024-05-09T17:38:06.911Z,97313.78
2024-05-09T17:40:37.258Z,97321.22
2024-05-09T17:43:09.036Z,97319.28
2024-05-09T17:45:42.090Z,97322.31
2024-05-09T17:48:11.903Z,97318.69
2024-05-09T17:50:41.228Z,97310.94
2024-05-09T17:53:09.375Z,97313.41
2024-05-09T17:55:37.002Z,97306.47
2024-05-09T17:58:06.102Z,97316.72
2024-05-09T18:00:38.936Z,97313.97
2024-05-09T18:03:09.955Z,97317.56
2024-05-09T18:05:38.054Z,97314.41
2024-05-09T18:08:07.200Z,97325.63
2024-05-09T18:10:38.126Z,97326.59
2024-05-09T18:13:11.871Z,97315.06
2024-05-09T18:15:40.358Z,97314.56
2024-05-09T18:18:08.765Z,97324.72
2024-05-09T18:20:42.499Z,97328.63
2024-05-09T18:23:18.019Z,97328.88
2024-05-09T18:25:48.457Z,97322.25
2024-05-09T18:28:17.554Z,97328.75
2024-05-09T18:30:46.498Z,97334.53
2024-05-09T18:33:15.275Z,97326.91
2024-05-09T18:35:45.367Z,97320.25
2024-05-09T18:38:13.794Z,97314.47
2024-05-09T18:40:44.890Z,97321.72
2024-05-09T18:43:28.752Z,97317.50
2024-05-09T18:46:04.838Z,97314.31
2024-05-09T18:48:34.964Z,97321.72
2024-05-09T18:51:03.195Z,97327.09
2024-05-09T18:53:31.563Z,97320.06
2024-05-09T18:56:00.619Z,97321.78
2024-05-09T18:58:31.237Z,97318.94
2024-05-09T19:01:01.619Z,97327.63
2024-05-09T19:03:30.202Z,97323.59
2024-05-09T19:05:58.244Z,97331.66
2024-05-09T19:08:28.484Z,97332.75
2024-05-09T19:11:00.372Z,97336.50
2024-05-09T19:13:30.545Z,97332.78
2024-05-09T19:15:58.593Z,97347.81
2024-05-09T19:18:30.506Z,97338.66
2024-05-09T19:20:59.449Z,97341.59
2024-05-09T19:23:27.271Z,97339.38
2024-05-09T19:25:55.045Z,97340.50
2024-05-09T19:28:23.271Z,97348.88
2024-05-09T19:30:51.524Z,97334.53
2024-05-09T19:33:20.458Z,97338.66
2024-05-09T19:35:50.239Z,97334.53
2024-05-09T19:38:18.450Z,97345.81
2024-05-09T19:40:46.758Z,97339.69
2024-05-09T19:43:14.722Z,97354.53
2024-05-09T19:45:44.053Z,97355.63
2024-05-09T19:48:17.323Z,97353.72
2024-05-09T19:50:46.319Z,97363.66
2024-05-09T19:53:14.596Z,97356.25
2024-05-09T19:55:43.300Z,97360.97
2024-05-09T19:58:13.971Z,97358.34
2024-05-09T20:00:43.590Z,97361.59
2024-05-09T20:03:16.209Z,97363.03
2024-05-09T20:05:46.649Z,97356.31
2024-05-09T20:08:16.513Z,97351.91
2024-05-09T20:10:44.622Z,97355.09
2024-05-09T20:13:13.477Z,97348.13
2024-05-09T20:15:41.321Z,97363.28
2024-05-09T20:18:12.562Z,97358.47
2024-05-09T20:20:43.894Z,97360.75
2024-05-09T20:23:14.191Z,97364.34
2024-05-09T20:25:43.122Z,97368.13
2024-05-09T20:28:12.405Z,97367.88
2024-05-09T20:30:40.798Z,97367.50
2024-05-09T20:33:10.019Z,97371.03
2024-05-09T20:35:38.611Z,97378.13
2024-05-09T20:38:06.411Z,97372.34
2024-05-09T20:40:38.328Z,97369.63
2024-05-09T20:43:10.726Z,97362.88
2024-05-09T20:45:40.247Z,97372.09
2024-05-09T20:48:09.434Z,97366.16
2024-05-09T20:50:40.861Z,97368.28
2024-05-09T20:53:12.187Z,97372.34
2024-05-09T20:55:40.846Z,97377.19
2024-05-09T20:58:09.838Z,97369.53
2024-05-09T21:00:42.647Z,97373.44
2024-05-09T21:03:16.153Z,97374.25
2024-05-09T21:05:45.324Z,97381.47
2024-05-09T21:08:14.772Z,97376.03
2024-05-09T21:10:42.672Z,97373.97
2024-05-09T21:13:11.259Z,97370.78
2024-05-09T21:15:40.129Z,97374.91
2024-05-09T21:18:08.540Z,97364.69
2024-05-09T21:20:39.293Z,97375.88
2024-05-09T21:23:08.392Z,97369.91
2024-05-09T21:25:37.262Z,97375.66
2024-05-09T21:28:06.458Z,97366.25
2024-05-09T21:30:41.304Z,97375.47
2024-05-09T21:33:14.107Z,97379.09
2024-05-09T21:35:44.430Z,97371.06
2024-05-09T21:38:14.556Z,97376.72
2024-05-09T21:40:46.280Z,97375.78
2024-05-09T21:43:14.420Z,97373.34
2024-05-09T21:45:43.589Z,97372.88
2024-05-09T21:48:13.298Z,97365.66
2024-05-09T21:50:42.886Z,97368.47
2024-05-09T21:53:13.377Z,97373.72
2024-05-09T21:55:46.170Z,97379.69
2024-05-09T21:58:14.785Z,97371.41
2024-05-09T22:00:44.114Z,97378.34
2024-05-09T22:03:14.625Z,97373.16
2024-05-09T22:05:42.697Z,97371.19
2024-05-09T22:08:11.594Z,97375.28
2024-05-09T22:10:40.538Z,97364.22
2024-05-09T22:13:09.326Z,97377.19
2024-05-09T22:15:40.378Z,97374.47
2024-05-09T22:18:10.843Z,97366.72
2024-05-09T22:20:40.602Z,97361.72
2024-05-09T22:23:08.866Z,97369.22
2024-05-09T22:25:38.030Z,97377.19
2024-05-09T22:28:07.809Z,97378.72
2024-05-09T22:30:39.062Z,97375.81
2024-05-09T22:33:10.937Z,97378.16
2024-05-09T22:35:44.026Z,97379.53
2024-05-09T22:38:14.683Z,97386.16
2024-05-09T22:40:48.334Z,97379.00
2024-05-09T22:43:23.473Z,97379.81
2024-05-09T22:45:54.395Z,97371.81
2024-05-09T22:48:27.188Z,97382.69
2024-05-09T22:50:56.020Z,97382.13
2024-05-09T22:53:25.745Z,97388.47
2024-05-09T22:55:54.889Z,97387.22
2024-05-09T22:58:24.104Z,97393.31
2024-05-09T23:00:53.602Z,97395.81
2024-05-09T23:03:23.175Z,97378.44
2024-05-09T23:05:51.168Z,97381.59
2024-05-09T23:08:19.066Z,97384.09
2024-05-09T23:10:48.365Z,97379.41
2024-05-09T23:13:16.949Z,97385.16
2024-05-09T23:15:44.605Z,97390.09
2024-05-09T23:18:14.783Z,97386.56
2024-05-09T23:20:42.324Z,97387.13
2024-05-09T23:23:11.861Z,97382.81
2024-05-09T23:25:41.339Z,97377.97
2024-05-09T23:28:09.389Z,97375.13
2024-05-09T23:30:39.986Z,97381.59
2024-05-09T23:33:11.271Z,97386.53
2024-05-09T23:35:41.036Z,97376.19
2024-05-09T23:38:08.428Z,97374.13
2024-05-09T23:40:39.593Z,97373.00
2024-05-09T23:43:10.178Z,97381.81
2024-05-09T23:45:38.106Z,97383.06
2024-05-09T23:48:06.980Z,97379.88
2024-05-09T23:50:37.623Z,97380.66
2024-05-09T23:53:08.301Z,97367.56
2024-05-09T23:55:37.128Z,97374.38
2024-05-09T23:58:05.657Z,97378.78
